CSAV Loncomilla — VRFB3 — position and weather

sailwx.info

Track history (hours):
 
Tides and Currents Weather Stations Pressure Air Temp Water Temp Dewpoint Dewpoint Depression Visibility Wind Speed Wind Dir Waves Ship Positions

CSAV Loncomilla

Last reported at 2015-Jan-25 13:00 UTC. Time now 2015-Jan-31 00:48 UTC.
Position S 36°54' W 055°12'.

Length 261 m; draft 8.3 m.

MMSI: 477207400.

Wind from 290 at 10 knots

Waves 1.0 meters (3 feet), 2 second period

Barometer 1007.0 mb
Air temperature 23.0 ° C
Visibility: greater than 10.8 NM
Dewpoint 18.5 ° C
Water temperature 21.0 ° C

Date/timePositionNaut miles runAvg speedWind from/ knotsBaromVisibWave heightAir tempDewpointWater temp
2015-Jan-25 13:00S 36°54' W 055°12'21 8.0 290 / 101007.010.8 1.023.018.521.0
2015-Jan-25 10:24S 36°41' W 054°52'910.6
2015-Jan-25 09:31S 36°35' W 054°43'73 8.1
2015-Jan-25 00:28S 35°23' W 054°27'  
2015-Jan-20 09:21S 27°50' W 048°07'1517.0
2015-Jan-20 08:27S 27°36' W 048°00'22717.4
2015-Jan-19 19:24S 24°06' W 046°23'910.8
2015-Jan-19 18:33S 23°59' W 046°17'1 1.0
2015-Jan-19 17:31S 23°58' W 046°18'0 0.0
2015-Jan-19 16:31S 23°58' W 046°18'0 0.0
2015-Jan-19 15:31S 23°58' W 046°18'0 0.0
2015-Jan-19 14:31S 23°58' W 046°18'0 0.0
2015-Jan-19 13:31S 23°58' W 046°18'0 0.0
2015-Jan-19 12:19S 23°58' W 046°18'0 0.0
2015-Jan-19 11:31S 23°58' W 046°18'0 0.0
2015-Jan-19 10:31S 23°58' W 046°18'0 0.0
2015-Jan-19 09:28S 23°58' W 046°18'0 0.0
2015-Jan-19 08:28S 23°58' W 046°18'0 0.0
2015-Jan-19 07:31S 23°58' W 046°18'0 0.0
2015-Jan-19 06:31S 23°58' W 046°18'0 0.0
2015-Jan-19 05:31S 23°58' W 046°18'0 0.0
2015-Jan-19 04:31S 23°58' W 046°18'0 0.0
2015-Jan-19 03:31S 23°58' W 046°18'0 0.0
2015-Jan-19 02:31S 23°58' W 046°18'0 0.0
2015-Jan-19 01:31S 23°58' W 046°18'0 0.0
2015-Jan-19 00:28S 23°58' W 046°18'0 0.0
2015-Jan-18 23:31S 23°58' W 046°18'3 3.1
2015-Jan-18 22:33S 23°60' W 046°20'11 9.1
2015-Jan-18 21:20S 24°11' W 046°19'4 4.1
2015-Jan-18 20:22S 24°14' W 046°16'0 0.0
2015-Jan-18 19:22S 24°14' W 046°16'0 0.0
2015-Jan-18 07:16S 24°14' W 046°16'0 0.1
2015-Jan-18 06:33S 24°14' W 046°16'  
Track history (hours):
 
Tides and Currents Weather Stations Pressure Air Temp Water Temp Dewpoint Dewpoint Depression Visibility Wind Speed Wind Dir Waves Ship Positions

CSAV Loncomilla

Last reported at 2015-Jan-25 13:00 UTC. Time now 2015-Jan-31 00:48 UTC.
Position S 36°54' W 055°12'.

Length 261 m; draft 8.3 m.

MMSI: 477207400.

Wind from 290 at 10 knots

Waves 1.0 meters (3 feet), 2 second period

Barometer 1007.0 mb
Air temperature 23.0 ° C
Visibility: greater than 10.8 NM
Dewpoint 18.5 ° C
Water temperature 21.0 ° C

Date/timePositionNaut miles runAvg speedWind from/ knotsBaromVisibWave heightAir tempDewpointWater temp
2015-Jan-25 13:00S 36°54' W 055°12'21 8.0 290 / 101007.010.8 1.023.018.521.0
2015-Jan-25 10:24S 36°41' W 054°52'910.6
2015-Jan-25 09:31S 36°35' W 054°43'73 8.1
2015-Jan-25 00:28S 35°23' W 054°27'  
2015-Jan-20 09:21S 27°50' W 048°07'1517.0
2015-Jan-20 08:27S 27°36' W 048°00'22717.4
2015-Jan-19 19:24S 24°06' W 046°23'910.8
2015-Jan-19 18:33S 23°59' W 046°17'1 1.0
2015-Jan-19 17:31S 23°58' W 046°18'0 0.0
2015-Jan-19 16:31S 23°58' W 046°18'0 0.0
2015-Jan-19 15:31S 23°58' W 046°18'0 0.0
2015-Jan-19 14:31S 23°58' W 046°18'0 0.0
2015-Jan-19 13:31S 23°58' W 046°18'0 0.0
2015-Jan-19 12:19S 23°58' W 046°18'0 0.0
2015-Jan-19 11:31S 23°58' W 046°18'0 0.0
2015-Jan-19 10:31S 23°58' W 046°18'0 0.0
2015-Jan-19 09:28S 23°58' W 046°18'0 0.0
2015-Jan-19 08:28S 23°58' W 046°18'0 0.0
2015-Jan-19 07:31S 23°58' W 046°18'0 0.0
2015-Jan-19 06:31S 23°58' W 046°18'0 0.0
2015-Jan-19 05:31S 23°58' W 046°18'0 0.0
2015-Jan-19 04:31S 23°58' W 046°18'0 0.0
2015-Jan-19 03:31S 23°58' W 046°18'0 0.0
2015-Jan-19 02:31S 23°58' W 046°18'0 0.0
2015-Jan-19 01:31S 23°58' W 046°18'0 0.0
2015-Jan-19 00:28S 23°58' W 046°18'0 0.0
2015-Jan-18 23:31S 23°58' W 046°18'3 3.1
2015-Jan-18 22:33S 23°60' W 046°20'11 9.1
2015-Jan-18 21:20S 24°11' W 046°19'4 4.1
2015-Jan-18 20:22S 24°14' W 046°16'0 0.0
2015-Jan-18 19:22S 24°14' W 046°16'0 0.0
2015-Jan-18 07:16S 24°14' W 046°16'0 0.1
2015-Jan-18 06:33S 24°14' W 046°16'  

Dump ship's entire track history